sensor_id;sensor_type;location;lat;lon;timestamp;temperature;humidity
76787;DHT22;65739;51.482;5.702;2024-03-08T00:06:13;2.90;99.90
76787;DHT22;65739;51.482;5.702;2024-03-08T00:08:48;2.90;99.90
76787;DHT22;65739;51.482;5.702;2024-03-08T00:18:28;2.80;99.90
76787;DHT22;65739;51.482;5.702;2024-03-08T00:21:00;2.80;99.90
76787;DHT22;65739;51.482;5.702;2024-03-08T00:24:18;2.80;99.90
76787;DHT22;65739;51.482;5.702;2024-03-08T00:33:40;2.60;99.90
76787;DHT22;65739;51.482;5.702;2024-03-08T00:43:01;2.60;99.90
76787;DHT22;65739;51.482;5.702;2024-03-08T00:45:42;2.60;99.90
76787;DHT22;65739;51.482;5.702;2024-03-08T00:48:11;2.50;99.90
76787;DHT22;65739;51.482;5.702;2024-03-08T00:58:19;2.50;99.90
76787;DHT22;65739;51.482;5.702;2024-03-08T01:01:20;2.40;99.90
76787;DHT22;65739;51.482;5.702;2024-03-08T01:13:27;2.30;99.90
76787;DHT22;65739;51.482;5.702;2024-03-08T01:22:50;2.30;99.90
76787;DHT22;65739;51.482;5.702;2024-03-08T01:25:17;2.30;99.90
76787;DHT22;65739;51.482;5.702;2024-03-08T01:30:58;2.20;99.90
76787;DHT22;65739;51.482;5.702;2024-03-08T01:41:24;2.20;99.90
76787;DHT22;65739;51.482;5.702;2024-03-08T01:43:33;2.20;99.90
76787;DHT22;65739;51.482;5.702;2024-03-08T01:46:05;2.10;99.90
76787;DHT22;65739;51.482;5.702;2024-03-08T01:48:34;2.00;99.90
76787;DHT22;65739;51.482;5.702;2024-03-08T01:51:38;2.00;99.90
76787;DHT22;65739;51.482;5.702;2024-03-08T01:54:08;2.00;99.90
76787;DHT22;65739;51.482;5.702;2024-03-08T01:56:39;2.00;99.90
76787;DHT22;65739;51.482;5.702;2024-03-08T02:05:47;1.90;99.90
76787;DHT22;65739;51.482;5.702;2024-03-08T02:08:31;1.90;99.90
76787;DHT22;65739;51.482;5.702;2024-03-08T02:11:33;1.90;99.90
76787;DHT22;65739;51.482;5.702;2024-03-08T02:25:00;1.80;99.90
76787;DHT22;65739;51.482;5.702;2024-03-08T02:27:29;1.80;99.90
76787;DHT22;65739;51.482;5.702;2024-03-08T02:37:24;1.90;99.90
76787;DHT22;65739;51.482;5.702;2024-03-08T02:43:21;1.80;99.90
76787;DHT22;65739;51.482;5.702;2024-03-08T02:45:50;1.70;99.90
76787;DHT22;65739;51.482;5.702;2024-03-08T02:48:19;1.70;99.90
76787;DHT22;65739;51.482;5.702;2024-03-08T02:51:23;1.70;99.90
76787;DHT22;65739;51.482;5.702;2024-03-08T02:57:44;1.60;99.90
76787;DHT22;65739;51.482;5.702;2024-03-08T03:00:16;1.60;99.90
76787;DHT22;65739;51.482;5.702;2024-03-08T03:03:04;1.60;99.90
76787;DHT22;65739;51.482;5.702;2024-03-08T03:05:34;1.60;99.90
76787;DHT22;65739;51.482;5.702;2024-03-08T03:08:00;1.70;99.90
76787;DHT22;65739;51.482;5.702;2024-03-08T03:14:10;1.60;99.90
76787;DHT22;65739;51.482;5.702;2024-03-08T03:17:15;1.50;99.90
76787;DHT22;65739;51.482;5.702;2024-03-08T03:19:42;1.50;99.90
76787;DHT22;65739;51.482;5.702;2024-03-08T03:22:10;1.50;99.90
76787;DHT22;65739;51.482;5.702;2024-03-08T03:24:36;1.50;99.90
76787;DHT22;65739;51.482;5.702;2024-03-08T03:27:06;1.60;99.90
76787;DHT22;65739;51.482;5.702;2024-03-08T03:30:08;1.50;99.90
76787;DHT22;65739;51.482;5.702;2024-03-08T03:33:10;1.50;99.90
76787;DHT22;65739;51.482;5.702;2024-03-08T03:35:51;1.50;99.90
76787;DHT22;65739;51.482;5.702;2024-03-08T03:38:19;1.40;99.90
76787;DHT22;65739;51.482;5.702;2024-03-08T03:40:57;1.40;99.90
76787;DHT22;65739;51.482;5.702;2024-03-08T03:50:12;1.40;99.90
76787;DHT22;65739;51.482;5.702;2024-03-08T03:56:49;1.40;99.90
76787;DHT22;65739;51.482;5.702;2024-03-08T03:59:35;1.30;99.90
76787;DHT22;65739;51.482;5.702;2024-03-08T04:02:23;1.30;99.90
76787;DHT22;65739;51.482;5.702;2024-03-08T04:04:58;1.30;99.90
76787;DHT22;65739;51.482;5.702;2024-03-08T04:07:37;1.30;99.90
76787;DHT22;65739;51.482;5.702;2024-03-08T04:13:11;1.20;99.90
76787;DHT22;65739;51.482;5.702;2024-03-08T04:15:37;1.20;99.90
76787;DHT22;65739;51.482;5.702;2024-03-08T04:18:11;1.20;99.90
76787;DHT22;65739;51.482;5.702;2024-03-08T04:20:42;1.10;99.90
76787;DHT22;65739;51.482;5.702;2024-03-08T04:23:08;1.20;99.90
76787;DHT22;65739;51.482;5.702;2024-03-08T04:25:37;1.20;99.90
76787;DHT22;65739;51.482;5.702;2024-03-08T04:28:20;1.20;99.90
76787;DHT22;65739;51.482;5.702;2024-03-08T04:31:06;1.10;99.90
76787;DHT22;65739;51.482;5.702;2024-03-08T04:33:38;1.10;99.90
76787;DHT22;65739;51.482;5.702;2024-03-08T04:36:27;1.10;99.90
76787;DHT22;65739;51.482;5.702;2024-03-08T04:38:58;1.00;99.90
76787;DHT22;65739;51.482;5.702;2024-03-08T04:41:49;1.00;99.90
76787;DHT22;65739;51.482;5.702;2024-03-08T04:44:18;1.00;99.90
76787;DHT22;65739;51.482;5.702;2024-03-08T04:46:44;1.00;99.90
76787;DHT22;65739;51.482;5.702;2024-03-08T04:49:13;1.00;99.90
76787;DHT22;65739;51.482;5.702;2024-03-08T04:51:40;1.00;99.90
76787;DHT22;65739;51.482;5.702;2024-03-08T04:54:46;1.00;99.90
76787;DHT22;65739;51.482;5.702;2024-03-08T04:57:33;0.90;99.90
76787;DHT22;65739;51.482;5.702;2024-03-08T05:00:20;1.00;99.90
76787;DHT22;65739;51.482;5.702;2024-03-08T05:02:46;1.00;99.90
76787;DHT22;65739;51.482;5.702;2024-03-08T05:05:12;0.90;99.90
76787;DHT22;65739;51.482;5.702;2024-03-08T05:07:44;0.90;99.90
76787;DHT22;65739;51.482;5.702;2024-03-08T05:10:13;0.90;99.90
76787;DHT22;65739;51.482;5.702;2024-03-08T05:12:43;0.90;99.90
76787;DHT22;65739;51.482;5.702;2024-03-08T05:15:11;0.90;99.90
76787;DHT22;65739;51.482;5.702;2024-03-08T05:17:37;0.80;99.90
76787;DHT22;65739;51.482;5.702;2024-03-08T05:20:07;0.90;99.90
76787;DHT22;65739;51.482;5.702;2024-03-08T05:23:22;1.00;99.90
76787;DHT22;65739;51.482;5.702;2024-03-08T05:25:44;0.80;99.90
76787;DHT22;65739;51.482;5.702;2024-03-08T05:28:13;0.80;99.90
76787;DHT22;65739;51.482;5.702;2024-03-08T05:30:39;0.70;99.90
76787;DHT22;65739;51.482;5.702;2024-03-08T05:35:42;0.70;99.90
76787;DHT22;65739;51.482;5.702;2024-03-08T05:41:25;0.70;99.90
76787;DHT22;65739;51.482;5.702;2024-03-08T05:43:51;0.70;99.90
76787;DHT22;65739;51.482;5.702;2024-03-08T05:46:20;0.70;99.90
76787;DHT22;65739;51.482;5.702;2024-03-08T05:48:47;0.70;99.90
76787;DHT22;65739;51.482;5.702;2024-03-08T05:51:13;0.70;99.90
76787;DHT22;65739;51.482;5.702;2024-03-08T05:53:48;0.70;99.90
76787;DHT22;65739;51.482;5.702;2024-03-08T05:56:18;0.70;99.90
76787;DHT22;65739;51.482;5.702;2024-03-08T05:59:19;0.70;99.90
76787;DHT22;65739;51.482;5.702;2024-03-08T06:01:45;0.70;99.90
76787;DHT22;65739;51.482;5.702;2024-03-08T06:06:49;0.80;99.90
76787;DHT22;65739;51.482;5.702;2024-03-08T06:09:17;0.80;99.90
76787;DHT22;65739;51.482;5.702;2024-03-08T06:11:48;0.80;99.90
76787;DHT22;65739;51.482;5.702;2024-03-08T06:14:17;0.80;99.90
76787;DHT22;65739;51.482;5.702;2024-03-08T06:16:53;0.70;99.90
76787;DHT22;65739;51.482;5.702;2024-03-08T06:19:22;0.80;99.90
76787;DHT22;65739;51.482;5.702;2024-03-08T06:22:01;0.80;99.90
76787;DHT22;65739;51.482;5.702;2024-03-08T06:24:31;0.80;99.90
76787;DHT22;65739;51.482;5.702;2024-03-08T06:26:58;0.80;99.90
76787;DHT22;65739;51.482;5.702;2024-03-08T06:29:23;0.80;99.90
76787;DHT22;65739;51.482;5.702;2024-03-08T06:31:49;0.70;99.90
76787;DHT22;65739;51.482;5.702;2024-03-08T06:34:15;0.70;99.90
76787;DHT22;65739;51.482;5.702;2024-03-08T06:36:53;0.70;99.90
76787;DHT22;65739;51.482;5.702;2024-03-08T06:39:26;0.80;99.90
76787;DHT22;65739;51.482;5.702;2024-03-08T06:41:55;0.80;99.90
76787;DHT22;65739;51.482;5.702;2024-03-08T06:44:24;0.90;99.90
76787;DHT22;65739;51.482;5.702;2024-03-08T06:46:51;1.00;99.90
76787;DHT22;65739;51.482;5.702;2024-03-08T06:49:17;1.00;99.90
76787;DHT22;65739;51.482;5.702;2024-03-08T06:51:43;1.10;99.90
76787;DHT22;65739;51.482;5.702;2024-03-08T06:54:09;1.10;99.90
76787;DHT22;65739;51.482;5.702;2024-03-08T06:56:35;1.20;99.90
76787;DHT22;65739;51.482;5.702;2024-03-08T06:59:03;1.20;99.90
76787;DHT22;65739;51.482;5.702;2024-03-08T07:01:29;1.30;99.90
76787;DHT22;65739;51.482;5.702;2024-03-08T07:04:00;1.40;99.90
76787;DHT22;65739;51.482;5.702;2024-03-08T07:07:11;1.50;99.90
76787;DHT22;65739;51.482;5.702;2024-03-08T07:09:37;1.60;99.90
76787;DHT22;65739;51.482;5.702;2024-03-08T07:12:03;1.60;99.90
76787;DHT22;65739;51.482;5.702;2024-03-08T07:14:29;1.70;99.90
76787;DHT22;65739;51.482;5.702;2024-03-08T07:17:21;1.80;99.90
76787;DHT22;65739;51.482;5.702;2024-03-08T07:19:51;1.90;99.90
76787;DHT22;65739;51.482;5.702;2024-03-08T07:25:36;2.10;99.90
76787;DHT22;65739;51.482;5.702;2024-03-08T07:28:05;2.20;99.90
76787;DHT22;65739;51.482;5.702;2024-03-08T07:30:32;2.20;99.90
76787;DHT22;65739;51.482;5.702;2024-03-08T07:33:33;2.30;99.90
76787;DHT22;65739;51.482;5.702;2024-03-08T07:36:05;2.40;99.90
76787;DHT22;65739;51.482;5.702;2024-03-08T07:38:31;2.50;99.90
76787;DHT22;65739;51.482;5.702;2024-03-08T07:41:03;2.60;99.90
76787;DHT22;65739;51.482;5.702;2024-03-08T07:43:32;2.70;99.90
76787;DHT22;65739;51.482;5.702;2024-03-08T07:55:37;3.10;99.90
76787;DHT22;65739;51.482;5.702;2024-03-08T07:58:05;3.20;99.90
76787;DHT22;65739;51.482;5.702;2024-03-08T08:00:32;3.30;99.90
76787;DHT22;65739;51.482;5.702;2024-03-08T08:02:58;3.50;99.90
76787;DHT22;65739;51.482;5.702;2024-03-08T08:05:24;3.50;99.90
76787;DHT22;65739;51.482;5.702;2024-03-08T08:08:02;3.60;99.90
76787;DHT22;65739;51.482;5.702;2024-03-08T08:10:51;3.70;99.90
76787;DHT22;65739;51.482;5.702;2024-03-08T08:13:20;3.80;99.90
76787;DHT22;65739;51.482;5.702;2024-03-08T08:15:49;3.90;99.90
76787;DHT22;65739;51.482;5.702;2024-03-08T08:25:22;4.30;99.90
76787;DHT22;65739;51.482;5.702;2024-03-08T08:27:50;4.50;99.90
76787;DHT22;65739;51.482;5.702;2024-03-08T08:30:21;4.60;99.90
76787;DHT22;65739;51.482;5.702;2024-03-08T08:32:58;4.70;99.90
76787;DHT22;65739;51.482;5.702;2024-03-08T08:36:18;4.80;99.90
76787;DHT22;65739;51.482;5.702;2024-03-08T08:38:54;4.90;99.90
76787;DHT22;65739;51.482;5.702;2024-03-08T08:41:21;5.00;99.90
76787;DHT22;65739;51.482;5.702;2024-03-08T08:43:53;5.00;99.90
76787;DHT22;65739;51.482;5.702;2024-03-08T08:47:00;5.20;99.90
76787;DHT22;65739;51.482;5.702;2024-03-08T08:49:38;5.40;99.90
76787;DHT22;65739;51.482;5.702;2024-03-08T08:52:40;5.50;99.90
76787;DHT22;65739;51.482;5.702;2024-03-08T09:11:12;6.30;99.90
76787;DHT22;65739;51.482;5.702;2024-03-08T09:19:49;6.40;99.90
76787;DHT22;65739;51.482;5.702;2024-03-08T09:26:22;6.60;99.90
76787;DHT22;65739;51.482;5.702;2024-03-08T09:28:58;6.60;99.90
76787;DHT22;65739;51.482;5.702;2024-03-08T09:31:47;6.80;99.90
76787;DHT22;65739;51.482;5.702;2024-03-08T09:34:15;6.90;99.90
76787;DHT22;65739;51.482;5.702;2024-03-08T09:40:01;7.00;99.90
76787;DHT22;65739;51.482;5.702;2024-03-08T09:42:33;7.20;99.90
76787;DHT22;65739;51.482;5.702;2024-03-08T09:45:06;7.30;99.90
76787;DHT22;65739;51.482;5.702;2024-03-08T09:47:34;7.50;99.90
76787;DHT22;65739;51.482;5.702;2024-03-08T09:53:53;7.60;99.90
76787;DHT22;65739;51.482;5.702;2024-03-08T09:56:25;7.80;99.90
76787;DHT22;65739;51.482;5.702;2024-03-08T09:58:53;7.90;99.90
76787;DHT22;65739;51.482;5.702;2024-03-08T10:01:34;8.00;99.90
76787;DHT22;65739;51.482;5.702;2024-03-08T10:04:01;8.10;99.90
76787;DHT22;65739;51.482;5.702;2024-03-08T10:06:35;8.10;99.90
76787;DHT22;65739;51.482;5.702;2024-03-08T10:09:13;8.00;99.90
76787;DHT22;65739;51.482;5.702;2024-03-08T10:11:40;8.20;99.90
76787;DHT22;65739;51.482;5.702;2024-03-08T10:14:39;8.20;99.90
76787;DHT22;65739;51.482;5.702;2024-03-08T10:17:05;8.30;99.90
76787;DHT22;65739;51.482;5.702;2024-03-08T10:20:19;8.40;99.90
76787;DHT22;65739;51.482;5.702;2024-03-08T10:22:45;8.60;99.90
76787;DHT22;65739;51.482;5.702;2024-03-08T10:25:19;8.70;99.90
76787;DHT22;65739;51.482;5.702;2024-03-08T10:27:45;8.70;99.90
76787;DHT22;65739;51.482;5.702;2024-03-08T10:30:16;8.60;99.90
76787;DHT22;65739;51.482;5.702;2024-03-08T10:32:50;8.80;99.90
76787;DHT22;65739;51.482;5.702;2024-03-08T10:35:17;8.80;99.90
76787;DHT22;65739;51.482;5.702;2024-03-08T10:37:48;9.00;99.90
76787;DHT22;65739;51.482;5.702;2024-03-08T10:40:19;9.10;99.90
76787;DHT22;65739;51.482;5.702;2024-03-08T10:42:56;9.60;99.90
76787;DHT22;65739;51.482;5.702;2024-03-08T10:45:38;9.70;99.90
76787;DHT22;65739;51.482;5.702;2024-03-08T10:48:27;9.80;99.90
76787;DHT22;65739;51.482;5.702;2024-03-08T10:51:04;9.70;99.90
76787;DHT22;65739;51.482;5.702;2024-03-08T10:53:30;9.90;99.90
76787;DHT22;65739;51.482;5.702;2024-03-08T10:55:57;10.10;99.90
76787;DHT22;65739;51.482;5.702;2024-03-08T10:58:24;10.10;99.90
76787;DHT22;65739;51.482;5.702;2024-03-08T11:00:57;10.40;99.90
76787;DHT22;65739;51.482;5.702;2024-03-08T11:06:17;10.60;99.90
76787;DHT22;65739;51.482;5.702;2024-03-08T11:08:45;11.00;99.90
76787;DHT22;65739;51.482;5.702;2024-03-08T11:13:52;11.20;99.90
76787;DHT22;65739;51.482;5.702;2024-03-08T11:18:56;11.40;99.90
76787;DHT22;65739;51.482;5.702;2024-03-08T11:21:24;11.40;99.90
76787;DHT22;65739;51.482;5.702;2024-03-08T11:24:02;11.60;99.90
76787;DHT22;65739;51.482;5.702;2024-03-08T11:26:31;11.70;99.90
76787;DHT22;65739;51.482;5.702;2024-03-08T11:32:27;12.00;99.90
76787;DHT22;65739;51.482;5.702;2024-03-08T11:34:53;11.70;99.90
76787;DHT22;65739;51.482;5.702;2024-03-08T11:37:20;11.80;99.90
76787;DHT22;65739;51.482;5.702;2024-03-08T11:39:54;12.40;99.90
76787;DHT22;65739;51.482;5.702;2024-03-08T11:42:25;12.60;99.90
76787;DHT22;65739;51.482;5.702;2024-03-08T11:44:53;12.30;99.90
76787;DHT22;65739;51.482;5.702;2024-03-08T11:47:20;12.30;99.90
76787;DHT22;65739;51.482;5.702;2024-03-08T11:49:46;12.20;99.90
76787;DHT22;65739;51.482;5.702;2024-03-08T11:52:17;12.40;99.90
76787;DHT22;65739;51.482;5.702;2024-03-08T11:54:52;12.50;99.90
76787;DHT22;65739;51.482;5.702;2024-03-08T11:57:20;12.60;99.90
76787;DHT22;65739;51.482;5.702;2024-03-08T11:59:54;12.60;99.90
76787;DHT22;65739;51.482;5.702;2024-03-08T12:02:20;12.70;99.90
76787;DHT22;65739;51.482;5.702;2024-03-08T12:04:47;12.60;99.90
76787;DHT22;65739;51.482;5.702;2024-03-08T12:07:20;12.60;99.90
76787;DHT22;65739;51.482;5.702;2024-03-08T12:12:50;12.60;99.90
76787;DHT22;65739;51.482;5.702;2024-03-08T12:15:17;12.50;99.90
76787;DHT22;65739;51.482;5.702;2024-03-08T12:17:44;12.80;99.90
76787;DHT22;65739;51.482;5.702;2024-03-08T12:20:20;13.10;99.90
76787;DHT22;65739;51.482;5.702;2024-03-08T12:23:04;13.00;99.90
76787;DHT22;65739;51.482;5.702;2024-03-08T12:25:33;13.10;99.90
76787;DHT22;65739;51.482;5.702;2024-03-08T12:28:13;13.70;99.90
76787;DHT22;65739;51.482;5.702;2024-03-08T12:30:50;13.80;99.90
76787;DHT22;65739;51.482;5.702;2024-03-08T12:33:21;13.80;99.90
76787;DHT22;65739;51.482;5.702;2024-03-08T12:35:55;13.50;99.90
76787;DHT22;65739;51.482;5.702;2024-03-08T12:38:21;13.20;99.90
76787;DHT22;65739;51.482;5.702;2024-03-08T12:40:51;13.50;99.90
76787;DHT22;65739;51.482;5.702;2024-03-08T12:43:22;13.50;99.90
76787;DHT22;65739;51.482;5.702;2024-03-08T12:45:48;13.40;99.90
76787;DHT22;65739;51.482;5.702;2024-03-08T12:48:14;13.20;99.90
76787;DHT22;65739;51.482;5.702;2024-03-08T12:50:42;13.50;99.90
76787;DHT22;65739;51.482;5.702;2024-03-08T12:53:15;13.40;99.90
76787;DHT22;65739;51.482;5.702;2024-03-08T12:55:40;13.40;99.90
76787;DHT22;65739;51.482;5.702;2024-03-08T12:58:06;13.60;99.90
76787;DHT22;65739;51.482;5.702;2024-03-08T13:00:38;13.30;99.90
76787;DHT22;65739;51.482;5.702;2024-03-08T13:03:08;13.10;99.90
76787;DHT22;65739;51.482;5.702;2024-03-08T13:05:36;13.40;99.90
76787;DHT22;65739;51.482;5.702;2024-03-08T13:08:08;13.30;99.90
76787;DHT22;65739;51.482;5.702;2024-03-08T13:10:41;13.30;99.90
76787;DHT22;65739;51.482;5.702;2024-03-08T13:13:20;13.30;99.90
76787;DHT22;65739;51.482;5.702;2024-03-08T13:15:45;13.20;99.90
76787;DHT22;65739;51.482;5.702;2024-03-08T13:18:22;13.20;99.90
76787;DHT22;65739;51.482;5.702;2024-03-08T13:20:48;13.40;99.90
76787;DHT22;65739;51.482;5.702;2024-03-08T13:23:17;13.50;99.90
76787;DHT22;65739;51.482;5.702;2024-03-08T13:25:43;13.60;99.90
76787;DHT22;65739;51.482;5.702;2024-03-08T13:28:09;13.50;99.90
76787;DHT22;65739;51.482;5.702;2024-03-08T13:30:36;13.70;99.90
76787;DHT22;65739;51.482;5.702;2024-03-08T13:33:04;14.10;99.90
76787;DHT22;65739;51.482;5.702;2024-03-08T13:35:38;14.20;99.90
76787;DHT22;65739;51.482;5.702;2024-03-08T13:38:06;14.20;99.90
76787;DHT22;65739;51.482;5.702;2024-03-08T13:40:39;14.20;99.90
76787;DHT22;65739;51.482;5.702;2024-03-08T13:43:09;14.20;99.90
76787;DHT22;65739;51.482;5.702;2024-03-08T13:45:37;14.10;99.90
76787;DHT22;65739;51.482;5.702;2024-03-08T13:48:04;13.90;99.90
76787;DHT22;65739;51.482;5.702;2024-03-08T13:50:31;14.10;99.90
76787;DHT22;65739;51.482;5.702;2024-03-08T13:52:57;13.90;99.90
76787;DHT22;65739;51.482;5.702;2024-03-08T13:55:23;13.80;99.90
76787;DHT22;65739;51.482;5.702;2024-03-08T13:57:50;13.80;99.90
76787;DHT22;65739;51.482;5.702;2024-03-08T14:00:19;14.00;99.90
76787;DHT22;65739;51.482;5.702;2024-03-08T14:02:53;13.90;99.90
76787;DHT22;65739;51.482;5.702;2024-03-08T14:05:19;13.80;99.90
76787;DHT22;65739;51.482;5.702;2024-03-08T14:07:45;13.80;99.90
76787;DHT22;65739;51.482;5.702;2024-03-08T14:10:14;13.70;99.90
76787;DHT22;65739;51.482;5.702;2024-03-08T14:12:40;13.70;99.90
76787;DHT22;65739;51.482;5.702;2024-03-08T14:15:08;13.70;99.90
76787;DHT22;65739;51.482;5.702;2024-03-08T14:17:35;13.60;99.90
76787;DHT22;65739;51.482;5.702;2024-03-08T14:20:01;13.60;99.90
76787;DHT22;65739;51.482;5.702;2024-03-08T14:22:26;13.40;99.90
76787;DHT22;65739;51.482;5.702;2024-03-08T14:24:59;13.60;99.90
76787;DHT22;65739;51.482;5.702;2024-03-08T14:27:25;13.50;99.90
76787;DHT22;65739;51.482;5.702;2024-03-08T14:29:54;13.70;99.90
76787;DHT22;65739;51.482;5.702;2024-03-08T14:32:20;13.90;99.90
76787;DHT22;65739;51.482;5.702;2024-03-08T14:34:48;13.60;99.90
76787;DHT22;65739;51.482;5.702;2024-03-08T14:37:14;13.70;99.90
76787;DHT22;65739;51.482;5.702;2024-03-08T14:39:40;13.80;99.90
76787;DHT22;65739;51.482;5.702;2024-03-08T14:42:05;13.90;99.90
76787;DHT22;65739;51.482;5.702;2024-03-08T14:44:33;13.80;99.90
76787;DHT22;65739;51.482;5.702;2024-03-08T14:46:59;13.50;99.90
76787;DHT22;65739;51.482;5.702;2024-03-08T14:49:25;13.60;99.90
76787;DHT22;65739;51.482;5.702;2024-03-08T14:51:55;13.80;99.90
76787;DHT22;65739;51.482;5.702;2024-03-08T14:54:21;14.00;99.90
76787;DHT22;65739;51.482;5.702;2024-03-08T14:56:48;14.10;99.90
76787;DHT22;65739;51.482;5.702;2024-03-08T14:59:16;14.30;99.90
76787;DHT22;65739;51.482;5.702;2024-03-08T15:01:42;14.50;99.90
76787;DHT22;65739;51.482;5.702;2024-03-08T15:04:09;14.10;99.90
76787;DHT22;65739;51.482;5.702;2024-03-08T15:06:36;14.10;99.90
76787;DHT22;65739;51.482;5.702;2024-03-08T15:09:03;14.00;99.90
76787;DHT22;65739;51.482;5.702;2024-03-08T15:11:45;13.80;99.90
76787;DHT22;65739;51.482;5.702;2024-03-08T15:14:11;13.50;99.90
76787;DHT22;65739;51.482;5.702;2024-03-08T15:16:40;13.50;99.90
76787;DHT22;65739;51.482;5.702;2024-03-08T15:19:08;13.70;99.90
76787;DHT22;65739;51.482;5.702;2024-03-08T15:21:34;13.70;99.90
76787;DHT22;65739;51.482;5.702;2024-03-08T15:24:00;13.60;99.90
76787;DHT22;65739;51.482;5.702;2024-03-08T15:26:28;13.60;99.90
76787;DHT22;65739;51.482;5.702;2024-03-08T15:28:55;13.40;99.90
76787;DHT22;65739;51.482;5.702;2024-03-08T15:31:22;13.30;99.90
76787;DHT22;65739;51.482;5.702;2024-03-08T15:33:50;13.30;99.90
76787;DHT22;65739;51.482;5.702;2024-03-08T15:36:24;13.30;99.90
76787;DHT22;65739;51.482;5.702;2024-03-08T15:38:53;13.00;99.90
76787;DHT22;65739;51.482;5.702;2024-03-08T15:41:19;13.20;99.90
76787;DHT22;65739;51.482;5.702;2024-03-08T15:43:46;13.20;99.90
76787;DHT22;65739;51.482;5.702;2024-03-08T15:46:12;13.20;99.90
76787;DHT22;65739;51.482;5.702;2024-03-08T15:48:48;13.40;99.90
76787;DHT22;65739;51.482;5.702;2024-03-08T15:51:14;13.50;99.90
76787;DHT22;65739;51.482;5.702;2024-03-08T15:53:43;13.50;99.90
76787;DHT22;65739;51.482;5.702;2024-03-08T15:56:10;13.20;99.90
76787;DHT22;65739;51.482;5.702;2024-03-08T15:58:36;13.00;99.90
76787;DHT22;65739;51.482;5.702;2024-03-08T16:01:02;12.90;99.90
76787;DHT22;65739;51.482;5.702;2024-03-08T16:03:35;13.10;99.90
76787;DHT22;65739;51.482;5.702;2024-03-08T16:06:01;13.10;99.90
76787;DHT22;65739;51.482;5.702;2024-03-08T16:08:29;12.90;99.90
76787;DHT22;65739;51.482;5.702;2024-03-08T16:10:55;13.10;99.90
76787;DHT22;65739;51.482;5.702;2024-03-08T16:13:23;12.90;99.90
76787;DHT22;65739;51.482;5.702;2024-03-08T16:15:51;12.80;99.90
76787;DHT22;65739;51.482;5.702;2024-03-08T16:18:18;12.60;99.90
76787;DHT22;65739;51.482;5.702;2024-03-08T16:20:49;12.50;99.90
76787;DHT22;65739;51.482;5.702;2024-03-08T16:23:15;12.40;99.90
76787;DHT22;65739;51.482;5.702;2024-03-08T16:25:42;12.20;99.90
76787;DHT22;65739;51.482;5.702;2024-03-08T16:28:08;12.30;99.90
76787;DHT22;65739;51.482;5.702;2024-03-08T16:30:34;12.20;99.90
76787;DHT22;65739;51.482;5.702;2024-03-08T16:33:00;12.10;99.90
76787;DHT22;65739;51.482;5.702;2024-03-08T16:35:25;11.90;99.90
76787;DHT22;65739;51.482;5.702;2024-03-08T16:37:51;11.90;99.90
76787;DHT22;65739;51.482;5.702;2024-03-08T16:40:18;11.80;99.90
76787;DHT22;65739;51.482;5.702;2024-03-08T16:42:46;11.90;99.90
76787;DHT22;65739;51.482;5.702;2024-03-08T16:45:12;12.00;99.90
76787;DHT22;65739;51.482;5.702;2024-03-08T16:47:39;11.70;99.90
76787;DHT22;65739;51.482;5.702;2024-03-08T16:50:05;11.50;99.90
76787;DHT22;65739;51.482;5.702;2024-03-08T16:52:35;11.40;99.90
76787;DHT22;65739;51.482;5.702;2024-03-08T16:55:03;11.20;99.90
76787;DHT22;65739;51.482;5.702;2024-03-08T16:57:34;11.00;99.90
76787;DHT22;65739;51.482;5.702;2024-03-08T17:00:03;10.90;99.90
76787;DHT22;65739;51.482;5.702;2024-03-08T17:02:29;10.60;99.90
76787;DHT22;65739;51.482;5.702;2024-03-08T17:04:55;10.60;99.90
76787;DHT22;65739;51.482;5.702;2024-03-08T17:07:21;10.50;99.90
76787;DHT22;65739;51.482;5.702;2024-03-08T17:09:48;10.50;99.90
76787;DHT22;65739;51.482;5.702;2024-03-08T17:12:13;10.30;99.90
76787;DHT22;65739;51.482;5.702;2024-03-08T17:14:44;10.30;99.90
76787;DHT22;65739;51.482;5.702;2024-03-08T17:17:09;10.20;99.90
76787;DHT22;65739;51.482;5.702;2024-03-08T17:19:38;10.10;99.90
76787;DHT22;65739;51.482;5.702;2024-03-08T17:22:05;10.00;99.90
76787;DHT22;65739;51.482;5.702;2024-03-08T17:24:32;9.90;99.90
76787;DHT22;65739;51.482;5.702;2024-03-08T17:26:57;9.80;99.90
76787;DHT22;65739;51.482;5.702;2024-03-08T17:29:23;9.70;99.90
76787;DHT22;65739;51.482;5.702;2024-03-08T17:31:49;9.60;99.90
76787;DHT22;65739;51.482;5.702;2024-03-08T17:34:15;9.50;99.90
76787;DHT22;65739;51.482;5.702;2024-03-08T17:36:47;9.50;99.90
76787;DHT22;65739;51.482;5.702;2024-03-08T17:39:15;9.40;99.90
76787;DHT22;65739;51.482;5.702;2024-03-08T17:41:47;9.30;99.90
76787;DHT22;65739;51.482;5.702;2024-03-08T17:44:17;9.20;99.90
76787;DHT22;65739;51.482;5.702;2024-03-08T17:46:46;9.10;99.90
76787;DHT22;65739;51.482;5.702;2024-03-08T17:49:13;9.00;99.90
76787;DHT22;65739;51.482;5.702;2024-03-08T17:51:40;8.90;99.90
76787;DHT22;65739;51.482;5.702;2024-03-08T17:54:09;8.90;99.90
76787;DHT22;65739;51.482;5.702;2024-03-08T17:56:42;8.80;99.90
76787;DHT22;65739;51.482;5.702;2024-03-08T17:59:09;8.70;99.90
76787;DHT22;65739;51.482;5.702;2024-03-08T18:01:37;8.70;99.90
76787;DHT22;65739;51.482;5.702;2024-03-08T18:04:05;8.50;99.90
76787;DHT22;65739;51.482;5.702;2024-03-08T18:06:35;8.50;99.90
76787;DHT22;65739;51.482;5.702;2024-03-08T18:09:08;8.40;99.90
76787;DHT22;65739;51.482;5.702;2024-03-08T18:11:38;8.50;99.90
76787;DHT22;65739;51.482;5.702;2024-03-08T18:14:04;8.50;99.90
76787;DHT22;65739;51.482;5.702;2024-03-08T18:16:32;8.40;99.90
76787;DHT22;65739;51.482;5.702;2024-03-08T18:19:03;8.30;99.90
76787;DHT22;65739;51.482;5.702;2024-03-08T18:21:35;8.30;99.90
76787;DHT22;65739;51.482;5.702;2024-03-08T18:24:04;8.30;99.90
76787;DHT22;65739;51.482;5.702;2024-03-08T18:26:31;8.20;99.90
76787;DHT22;65739;51.482;5.702;2024-03-08T18:29:02;8.20;99.90
76787;DHT22;65739;51.482;5.702;2024-03-08T18:31:35;8.20;99.90
76787;DHT22;65739;51.482;5.702;2024-03-08T18:34:01;8.10;99.90
76787;DHT22;65739;51.482;5.702;2024-03-08T18:36:30;8.00;99.90
76787;DHT22;65739;51.482;5.702;2024-03-08T18:39:00;8.00;99.90
76787;DHT22;65739;51.482;5.702;2024-03-08T18:41:26;7.90;99.90
76787;DHT22;65739;51.482;5.702;2024-03-08T18:43:59;7.80;99.90
76787;DHT22;65739;51.482;5.702;2024-03-08T18:46:26;7.70;99.90
76787;DHT22;65739;51.482;5.702;2024-03-08T18:48:52;7.60;99.90
76787;DHT22;65739;51.482;5.702;2024-03-08T18:51:19;7.50;99.90
76787;DHT22;65739;51.482;5.702;2024-03-08T18:53:45;7.40;99.90
76787;DHT22;65739;51.482;5.702;2024-03-08T18:56:10;7.30;99.90
76787;DHT22;65739;51.482;5.702;2024-03-08T18:58:40;7.20;99.90
76787;DHT22;65739;51.482;5.702;2024-03-08T19:01:06;7.20;99.90
76787;DHT22;65739;51.482;5.702;2024-03-08T19:03:32;7.10;99.90
76787;DHT22;65739;51.482;5.702;2024-03-08T19:06:00;7.00;99.90
76787;DHT22;65739;51.482;5.702;2024-03-08T19:08:28;6.90;99.90
76787;DHT22;65739;51.482;5.702;2024-03-08T19:10:55;6.90;99.90
76787;DHT22;65739;51.482;5.702;2024-03-08T19:13:23;6.80;99.90